Time;durP1;ratioP1;P1;durP2;ratioP2;P2;SDS_P1;SDS_P2;PMS_P1;PMS_P2;Temp;Humidity;BMP_temperature;BMP_pressure;BME280_temperature;BME280_humidity;BME280_pressure;Samples;Min_cycle;Max_cycle;Signal;HPM_P1;HPM_P2
2022/06/17 00:02:14;;;;;;;2.13;1.87;;;;;;;17.13;79.93;99797.00;5093347;28;20826;-64
2022/06/17 00:04:43;;;;;;;0.70;0.70;;;;;;;17.11;80.45;99798.78;5093385;28;20069;-64
2022/06/17 00:07:16;;;;;;;0.93;0.90;;;;;;;17.17;80.61;99803.81;5093487;28;20074;-64
2022/06/17 00:09:45;;;;;;;1.17;1.00;;;;;;;17.15;80.54;99808.16;5093382;28;20362;-64
2022/06/17 00:12:15;;;;;;;0.60;0.60;;;;;;;17.18;80.69;99810.63;5093703;28;20121;-64
2022/06/17 00:17:24;;;;;;;1.17;0.82;;;;;;;17.07;80.62;99817.81;5094017;28;20047;-64
2022/06/17 00:19:53;;;;;;;1.15;0.90;;;;;;;17.05;80.78;99819.59;5093340;28;20071;-64
2022/06/17 00:22:25;;;;;;;0.70;0.70;;;;;;;17.08;80.93;99819.53;5093467;28;20393;-64
2022/06/17 00:24:55;;;;;;;0.50;0.50;;;;;;;17.09;80.87;99816.03;5092942;28;20285;-65
2022/06/17 00:27:23;;;;;;;;;;;;;;;17.09;80.80;99813.47;5093925;28;20067;-64
2022/06/17 00:29:52;;;;;;;0.70;0.70;;;;;;;17.06;80.91;99820.44;5093169;28;19920;-65
2022/06/17 00:32:21;;;;;;;0.75;0.75;;;;;;;17.03;80.62;99820.50;5093248;28;20507;-64
2022/06/17 00:34:50;;;;;;;16.30;2.37;;;;;;;17.04;80.50;99828.19;5093077;28;20086;-64
2022/06/17 00:37:19;;;;;;;0.70;0.70;;;;;;;17.03;80.67;99831.69;5093088;28;20068;-64
2022/06/17 00:39:50;;;;;;;0.70;0.70;;;;;;;16.99;80.59;99830.03;5093133;28;20089;-64
2022/06/17 00:42:19;;;;;;;0.60;0.60;;;;;;;16.97;80.38;99830.94;5093038;28;20089;-64
2022/06/17 00:44:54;;;;;;;0.75;0.75;;;;;;;16.99;80.69;99835.19;5092992;28;20085;-64
2022/06/17 00:47:31;;;;;;;0.60;0.60;;;;;;;16.83;80.46;99802.94;5093378;28;20489;-64
2022/06/17 00:50:09;;;;;;;0.70;0.70;;;;;;;16.98;80.58;99832.66;5095278;28;20048;-65
2022/06/17 00:52:42;;;;;;;1.50;1.40;;;;;;;16.96;80.13;99830.13;5095544;28;20546;-64
2022/06/17 00:55:34;;;;;;;0.77;0.77;;;;;;;16.93;80.04;99827.63;5096503;28;20052;-64
2022/06/17 00:58:14;;;;;;;0.98;0.98;;;;;;;16.87;80.02;99835.47;5096434;28;20093;-65
2022/06/17 01:00:44;;;;;;;0.65;0.65;;;;;;;16.77;80.13;99837.44;5096483;28;20048;-64
2022/06/17 01:03:19;;;;;;;3.72;0.85;;;;;;;16.80;79.80;99833.94;5095137;28;20044;-64
2022/06/17 01:05:52;;;;;;;0.73;0.73;;;;;;;16.77;79.53;99844.34;5095166;28;20509;-64
2022/06/17 01:11:10;;;;;;;0.75;0.70;;;;;;;16.73;79.70;99837.53;5095425;28;20048;-64
2022/06/17 01:13:39;;;;;;;0.50;0.50;;;;;;;16.73;79.60;99840.13;5095022;28;20109;-64
2022/06/17 01:16:09;;;;;;;0.98;0.90;;;;;;;16.72;79.42;99841.84;5094843;28;20075;-64
2022/06/17 01:18:44;;;;;;;0.70;0.70;;;;;;;16.66;79.75;99846.31;5094937;28;20068;-64
2022/06/17 01:21:21;;;;;;;0.50;0.50;;;;;;;16.60;79.57;99841.31;5096065;28;20075;-64
2022/06/17 01:23:51;;;;;;;0.70;0.57;;;;;;;16.66;79.78;99852.31;5094724;28;20392;-64
2022/06/17 01:26:21;;;;;;;0.82;0.82;;;;;;;16.63;79.92;99856.66;5095805;28;20134;-64
2022/06/17 01:28:50;;;;;;;0.80;0.80;;;;;;;16.61;79.86;99854.13;5095880;28;20040;-64
2022/06/17 01:31:21;;;;;;;0.70;0.70;;;;;;;16.58;79.89;99858.53;5096191;28;20056;-64
2022/06/17 01:33:51;;;;;;;0.60;0.60;;;;;;;16.51;79.90;99851.75;5094965;28;20075;-64
2022/06/17 01:36:23;;;;;;;1.30;1.20;;;;;;;16.39;79.50;99844.28;5111775;28;20558;-64
2022/06/17 01:38:57;;;;;;;1.13;1.02;;;;;;;16.44;79.54;99878.53;5095719;28;20512;-64
2022/06/17 01:41:28;;;;;;;0.50;0.50;;;;;;;16.40;79.35;99887.22;5095729;28;20097;-64
2022/06/17 01:44:01;;;;;;;0.60;0.60;;;;;;;16.40;79.47;99879.50;5095702;28;20043;-64
2022/06/17 01:46:35;;;;;;;1.05;0.75;;;;;;;16.12;79.37;99858.63;5095517;28;20048;-64
2022/06/17 01:49:12;;;;;;;0.50;0.50;;;;;;;16.18;79.42;99884.22;5094671;28;20044;-64
2022/06/17 01:51:45;;;;;;;0.63;0.60;;;;;;;15.94;79.17;99875.28;5095488;28;20051;-64
2022/06/17 01:54:22;;;;;;;0.50;0.50;;;;;;;15.81;79.29;99889.25;5095436;28;20048;-64
2022/06/17 01:56:53;;;;;;;0.70;0.70;;;;;;;15.65;79.80;99889.53;5094145;28;20071;-64
2022/06/17 01:59:28;;;;;;;0.60;0.60;;;;;;;15.59;80.33;99885.38;5094070;28;20066;-64
2022/06/17 02:02:01;;;;;;;0.40;0.40;;;;;;;15.50;80.18;99882.94;5094004;28;20072;-63
2022/06/17 02:04:36;;;;;;;0.55;0.55;;;;;;;15.45;80.63;99879.63;5094052;28;20507;-63
2022/06/17 02:07:13;;;;;;;0.93;0.82;;;;;;;15.28;80.67;99855.88;5095216;28;20047;-64
2022/06/17 02:09:45;;;;;;;1.00;0.88;;;;;;;15.26;80.88;99849.94;5094249;28;20097;-64
2022/06/17 02:12:16;;;;;;;0.60;0.60;;;;;;;15.36;81.01;99870.28;5095106;28;20052;-64
2022/06/17 02:14:53;;;;;;;0.63;0.63;;;;;;;15.36;80.92;99864.31;5094193;28;20154;-64
2022/06/17 02:17:46;;;;;;;1.00;1.00;;;;;;;15.33;81.35;99838.66;5083690;28;20451;-64
2022/06/17 02:20:28;;;;;;;0.52;0.52;;;;;;;15.47;80.62;99870.16;5093635;28;20044;-64
2022/06/17 02:23:03;;;;;;;1.25;1.15;;;;;;;15.43;81.24;99876.19;5093565;28;20094;-64
2022/06/17 02:25:36;;;;;;;;;;;;;;;15.53;81.48;99864.03;5093956;28;20088;-65
2022/06/17 02:28:06;;;;;;;0.70;0.70;;;;;;;15.63;81.60;99858.72;5093527;28;19920;-64
2022/06/17 02:30:37;;;;;;;0.75;0.75;;;;;;;15.71;81.65;99863.72;5094778;28;20048;-64
2022/06/17 02:33:08;;;;;;;0.47;0.47;;;;;;;15.73;81.65;99865.38;5093522;28;20044;-64
2022/06/17 02:35:42;;;;;;;0.90;0.90;;;;;;;15.79;81.36;99864.41;5094952;28;20508;-64
2022/06/17 02:38:15;;;;;;;0.50;0.50;;;;;;;15.83;81.29;99864.34;5093326;28;20135;-64
2022/06/17 02:40:48;;;;;;;0.60;0.60;;;;;;;15.86;81.02;99855.72;5095112;28;20457;-64
2022/06/17 02:43:23;;;;;;;2.88;1.00;;;;;;;15.90;80.97;99859.91;5094712;28;20486;-64
2022/06/17 02:45:59;;;;;;;0.80;0.80;;;;;;;15.92;80.93;99856.44;5094492;28;20072;-64
2022/06/17 02:48:32;;;;;;;1.77;1.15;;;;;;;15.95;81.20;99861.53;5093510;28;20051;-65
2022/06/17 02:51:02;;;;;;;1.27;1.17;;;;;;;15.96;81.01;99857.22;5094700;28;20073;-64
2022/06/17 02:53:34;;;;;;;0.90;0.90;;;;;;;15.94;80.96;99862.41;5094556;28;20535;-64
2022/06/17 02:56:09;;;;;;;0.60;0.60;;;;;;;15.93;80.94;99863.25;5093051;28;20048;-64
2022/06/17 02:58:48;;;;;;;0.57;0.57;;;;;;;15.95;81.22;99860.69;5094264;28;20040;-64
2022/06/17 03:01:20;;;;;;;0.70;0.70;;;;;;;15.95;81.08;99860.69;5094487;28;20489;-64
2022/06/17 03:03:57;;;;;;;0.70;0.70;;;;;;;15.99;80.55;99863.16;5093161;28;20502;-64
2022/06/17 03:06:33;;;;;;;0.60;0.60;;;;;;;15.97;80.49;99857.19;5094099;28;20568;-64
2022/06/17 03:09:17;;;;;;;0.77;0.77;;;;;;;16.05;80.63;99860.44;5092923;28;20512;-64
2022/06/17 03:11:54;;;;;;;0.55;0.55;;;;;;;16.08;80.57;99865.53;5092259;28;20488;-64
2022/06/17 03:14:34;;;;;;;0.90;0.80;;;;;;;16.13;80.48;99859.44;5093999;28;20044;-64
2022/06/17 03:17:09;;;;;;;0.70;0.70;;;;;;;16.13;80.51;99860.31;5093949;28;20053;-64
2022/06/17 03:19:40;;;;;;;1.35;1.08;;;;;;;16.14;79.97;99866.31;5093015;28;20048;-64
2022/06/17 03:22:13;;;;;;;0.60;0.60;;;;;;;16.14;80.44;99871.44;5094207;28;20098;-64
2022/06/17 03:24:48;;;;;;;1.00;0.98;;;;;;;16.12;80.09;99878.38;5092214;28;20094;-64
2022/06/17 03:27:22;;;;;;;1.75;1.00;;;;;;;16.12;80.05;99878.38;5092992;28;20493;-64
2022/06/17 03:29:55;;;;;;;1.80;1.15;;;;;;;16.17;80.21;99876.56;5092545;28;20056;-64
2022/06/17 03:32:28;;;;;;;0.50;0.50;;;;;;;16.23;80.35;99886.72;5092599;28;20549;-64
2022/06/17 03:34:57;;;;;;;0.63;0.60;;;;;;;16.26;80.16;99879.78;5092573;28;20063;-64
2022/06/17 03:37:32;;;;;;;0.50;0.50;;;;;;;16.22;80.51;99864.44;5092507;28;20052;-64
2022/06/17 03:40:08;;;;;;;2.30;0.77;;;;;;;16.37;80.37;99882.13;5093240;28;20106;-64
2022/06/17 03:42:53;;;;;;;0.63;0.63;;;;;;;16.46;80.65;99884.53;5093092;28;20043;-64
2022/06/17 03:45:28;;;;;;;0.60;0.60;;;;;;;16.51;80.14;99877.53;5092465;28;20130;-64
2022/06/17 03:48:03;;;;;;;0.68;0.65;;;;;;;16.30;79.95;99867.69;5092448;28;20044;-65
2022/06/17 03:50:34;;;;;;;0.60;0.60;;;;;;;16.32;80.22;99882.22;5092332;28;20048;-64
2022/06/17 03:53:07;;;;;;;1.02;0.95;;;;;;;16.42;80.37;99893.19;5092340;28;20063;-64
2022/06/17 03:55:37;;;;;;;1.17;1.00;;;;;;;16.44;80.40;99896.56;5092386;28;20048;-64
2022/06/17 03:58:16;;;;;;;1.08;1.00;;;;;;;16.40;80.40;99894.94;5092352;28;20130;-65
2022/06/17 04:00:59;;;;;;;0.60;0.60;;;;;;;16.44;80.52;99896.56;5075637;28;20374;-64
2022/06/17 04:03:33;;;;;;;0.80;0.80;;;;;;;16.43;80.60;99900.91;5092469;28;20048;-64
2022/06/17 04:06:09;;;;;;;0.85;0.73;;;;;;;16.40;80.47;99910.41;5092259;28;20059;-65
2022/06/17 04:08:58;;;;;;;3.45;1.05;;;;;;;16.42;80.88;99908.63;5092267;28;20044;-64
2022/06/17 04:11:39;;;;;;;1.00;0.90;;;;;;;16.54;80.70;99905.84;5092126;28;20040;-64
2022/06/17 04:14:19;;;;;;;0.90;0.90;;;;;;;16.47;80.48;99891.38;5092196;28;20333;-65
2022/06/17 04:16:55;;;;;;;0.80;0.80;;;;;;;16.61;80.58;99907.41;5093357;28;20123;-64
2022/06/17 04:19:28;;;;;;;0.77;0.70;;;;;;;16.66;80.65;99918.47;5092462;28;20052;-65
2022/06/17 04:22:00;;;;;;;1.25;1.15;;;;;;;16.68;80.95;99911.53;5091961;28;20048;-65
2022/06/17 04:24:36;;;;;;;0.90;0.90;;;;;;;16.76;80.61;99922.56;5093732;28;20564;-65
2022/06/17 04:27:16;;;;;;;1.00;0.70;;;;;;;16.88;80.69;99924.00;5097505;28;20071;-65
2022/06/17 04:29:51;;;;;;;1.10;1.00;;;;;;;16.89;80.66;99921.41;5096215;28;20046;-64
2022/06/17 04:32:29;;;;;;;0.70;0.70;;;;;;;16.92;80.79;99926.47;5095810;28;20052;-66
2022/06/17 04:34:59;;;;;;;10.02;2.45;;;;;;;16.88;80.40;99937.75;5095783;28;20132;-65
2022/06/17 04:37:30;;;;;;;0.70;0.70;;;;;;;16.96;80.66;99938.44;5095765;28;20048;-65
2022/06/17 04:40:23;;;;;;;0.95;0.93;;;;;;;17.04;80.30;99941.66;5097123;28;20486;-65
2022/06/17 04:43:08;;;;;;;0.68;0.68;;;;;;;17.15;80.14;99939.72;5097168;28;20154;-65
2022/06/17 04:45:39;;;;;;;0.77;0.77;;;;;;;17.31;80.31;99940.19;5095615;28;20043;-64
2022/06/17 04:48:09;;;;;;;0.85;0.85;;;;;;;17.42;79.84;99939.03;5096437;28;20141;-65
2022/06/17 04:50:38;;;;;;;0.70;0.70;;;;;;;17.44;79.64;99947.59;5095797;28;20513;-66
2022/06/17 04:53:09;;;;;;;0.60;0.60;;;;;;;17.42;79.51;99944.19;5095265;28;20048;-64
2022/06/17 04:55:56;;;;;;;0.93;0.77;;;;;;;17.49;79.46;99944.06;5095606;28;20112;-65
2022/06/17 04:58:44;;;;;;;0.83;0.83;;;;;;;17.57;79.05;99948.16;5096647;28;20047;-65
2022/06/17 05:01:20;;;;;;;1.35;1.25;;;;;;;17.62;78.98;99950.63;5096464;28;20093;-65
2022/06/17 05:04:02;;;;;;;1.02;1.00;;;;;;;17.67;78.45;99954.81;5095376;28;20109;-64
2022/06/17 05:06:39;;;;;;;;;;;;;;;17.62;78.47;99950.63;5095596;28;20125;-65
2022/06/17 05:09:21;;;;;;;11.05;1.40;;;;;;;17.76;78.15;99964.91;5095131;28;19920;-65
2022/06/17 05:11:56;;;;;;;0.73;0.73;;;;;;;17.84;77.85;99964.72;5096317;28;20048;-64
2022/06/17 05:14:38;;;;;;;0.77;0.77;;;;;;;18.08;77.83;99966.66;5092636;28;20061;-65
2022/06/17 05:17:12;;;;;;;0.70;0.70;;;;;;;18.30;77.32;99967.78;5114780;28;20043;-65
2022/06/17 05:19:48;;;;;;;1.05;0.95;;;;;;;18.52;77.03;99968.88;5116125;28;20056;-67
2022/06/17 05:22:22;;;;;;;0.85;0.85;;;;;;;18.49;76.77;99940.56;5101656;28;20052;-65
2022/06/17 05:24:52;;;;;;;0.55;0.55;;;;;;;18.64;76.20;99942.69;5114910;28;20043;-66
2022/06/17 05:27:21;;;;;;;0.50;0.50;;;;;;;18.85;75.61;99956.72;5114990;28;20126;-65
2022/06/17 05:29:51;;;;;;;0.65;0.65;;;;;;;18.92;75.16;99968.59;5116067;28;20130;-65
2022/06/17 05:32:23;;;;;;;2.05;1.20;;;;;;;19.02;74.85;99963.97;5113860;28;20050;-64
2022/06/17 05:34:53;;;;;;;0.70;0.70;;;;;;;19.04;74.42;99968.22;5114246;28;20067;-66
2022/06/17 05:37:22;;;;;;;;;;;;;;;18.95;74.07;99973.69;5115148;28;20047;-65
2022/06/17 05:39:56;;;;;;;0.77;0.77;;;;;;;18.93;74.05;99964.25;5114746;28;19972;-65
2022/06/17 05:42:27;;;;;;;1.20;1.02;;;;;;;19.01;74.09;99977.78;5115973;28;20050;-66
2022/06/17 05:44:56;;;;;;;0.55;0.55;;;;;;;19.05;73.79;99974.25;5114378;28;20080;-65
2022/06/17 05:47:38;;;;;;;0.80;0.80;;;;;;;18.96;73.84;99970.19;5116001;28;20477;-65
2022/06/17 05:50:23;;;;;;;2.53;1.00;;;;;;;18.94;73.71;99978.88;5113975;28;20130;-66
2022/06/17 05:53:14;;;;;;;1.52;1.30;;;;;;;18.89;73.77;99957.47;5115286;28;20101;-65
2022/06/17 05:55:54;;;;;;;6.25;1.13;;;;;;;19.08;73.67;99976.72;5115904;28;20130;-65
2022/06/17 05:58:24;;;;;;;0.90;0.85;;;;;;;19.02;73.45;99982.09;5115645;27;20044;-65
2022/06/17 06:00:55;;;;;;;1.02;0.93;;;;;;;19.04;73.49;99977.72;5114732;28;20613;-65
2022/06/17 06:03:27;;;;;;;1.35;1.25;;;;;;;19.21;73.57;99980.63;5114278;28;20053;-65
2022/06/17 06:06:03;;;;;;;0.88;0.88;;;;;;;19.31;73.50;99984.63;5114220;28;20101;-65
2022/06/17 06:08:33;;;;;;;1.77;1.35;;;;;;;19.36;73.37;99978.44;5114113;28;20051;-65
2022/06/17 06:11:04;;;;;;;2.10;1.10;;;;;;;19.49;73.31;99985.81;5114216;28;20048;-64
2022/06/17 06:13:38;;;;;;;0.77;0.77;;;;;;;19.54;73.47;99984.78;5114016;28;20047;-65
2022/06/17 06:16:08;;;;;;;2.78;0.80;;;;;;;19.56;73.21;99993.34;5113391;28;20040;-65
2022/06/17 06:18:45;;;;;;;0.60;0.60;;;;;;;19.65;72.93;100002.56;5113940;28;20105;-65
2022/06/17 06:21:18;;;;;;;0.60;0.60;;;;;;;19.68;73.08;100003.31;5115403;28;20392;-66
2022/06/17 06:23:48;;;;;;;3.97;3.58;;;;;;;19.79;73.28;99998.63;5113830;28;20043;-65
2022/06/17 06:26:25;;;;;;;1.25;1.15;;;;;;;19.95;73.34;99994.63;5113523;28;20055;-65
2022/06/17 06:29:06;;;;;;;0.63;0.63;;;;;;;20.11;73.13;99997.53;5115618;28;20047;-66
2022/06/17 06:31:40;;;;;;;1.60;1.02;;;;;;;20.24;72.97;99966.88;5113568;28;20515;-65
2022/06/17 06:34:25;;;;;;;0.68;0.68;;;;;;;20.69;72.71;100006.72;5113704;28;20117;-66
2022/06/17 06:36:54;;;;;;;1.15;1.05;;;;;;;20.75;72.08;100016.88;5113464;28;20390;-68
2022/06/17 06:39:32;;;;;;;2.05;1.05;;;;;;;20.79;72.04;100017.59;5113086;28;20570;-66
2022/06/17 06:42:08;;;;;;;1.53;1.13;;;;;;;20.95;72.34;100024.75;5114834;28;20081;-67
2022/06/17 06:44:54;;;;;;;0.70;0.65;;;;;;;21.16;71.22;100023.16;5114218;28;20039;-66
2022/06/17 06:47:28;;;;;;;0.55;0.55;;;;;;;21.34;69.42;100014.63;5112947;28;20093;-66
2022/06/17 06:50:02;;;;;;;1.15;1.05;;;;;;;21.52;68.52;100019.13;5113454;28;20047;-66
2022/06/17 06:52:30;;;;;;;0.73;0.73;;;;;;;21.63;67.29;100008.28;5113439;28;20051;-68
2022/06/17 06:55:00;;;;;;;0.80;0.80;;;;;;;21.66;66.13;100002.97;5113667;28;20040;-68
2022/06/17 06:57:28;;;;;;;1.85;1.42;;;;;;;21.69;65.59;100005.44;5114504;28;20505;-68
2022/06/17 07:00:02;;;;;;;1.13;0.90;;;;;;;21.77;65.53;100005.97;5113333;28;20048;-67
2022/06/17 07:02:32;;;;;;;0.65;0.65;;;;;;;21.84;65.23;100007.38;5115017;28;20056;-68
2022/06/17 07:05:03;;;;;;;0.65;0.65;;;;;;;21.89;64.98;100002.88;5113458;28;20044;-67
2022/06/17 07:07:39;;;;;;;1.17;1.08;;;;;;;22.10;64.86;100014.97;5113585;28;20043;-66
2022/06/17 07:10:13;;;;;;;1.00;1.00;;;;;;;22.27;64.20;100012.50;5114321;28;20130;-66
2022/06/17 07:12:43;;;;;;;1.40;1.10;;;;;;;22.32;63.22;100013.16;5114433;28;20122;-67
2022/06/17 07:15:13;;;;;;;1.50;1.40;;;;;;;22.24;63.24;99975.41;5114267;28;20078;-68
2022/06/17 07:17:54;;;;;;;0.85;0.82;;;;;;;22.53;62.96;100009.59;5114172;28;20047;-68
2022/06/17 07:20:26;;;;;;;1.05;0.95;;;;;;;22.59;62.54;100009.34;5114135;28;20072;-66
2022/06/17 07:22:55;;;;;;;0.95;0.80;;;;;;;22.62;62.14;100009.25;5114435;28;20043;-68
2022/06/17 07:25:24;;;;;;;2.03;1.38;;;;;;;22.69;61.56;100007.22;5113903;28;20479;-66
2022/06/17 07:27:53;;;;;;;0.52;0.52;;;;;;;22.71;61.30;100007.13;5114051;28;20130;-65
2022/06/17 07:30:24;;;;;;;0.60;0.60;;;;;;;22.73;60.98;100007.91;5114061;28;20043;-68
2022/06/17 07:32:53;;;;;;;1.48;1.10;;;;;;;22.85;60.98;100013.41;5114136;28;20126;-66
2022/06/17 07:35:22;;;;;;;0.73;0.73;;;;;;;22.83;60.48;100006.59;5113909;28;20050;-67
2022/06/17 07:40:47;;;;;;;1.23;1.13;;;;;;;22.96;60.27;100003.34;5113943;28;20047;-66
2022/06/17 07:43:18;;;;;;;0.60;0.60;;;;;;;22.89;59.36;100007.13;5113856;28;20039;-67
2022/06/17 07:45:47;;;;;;;1.90;1.10;;;;;;;22.97;59.10;100004.19;5114178;28;20051;-68
2022/06/17 07:48:19;;;;;;;1.33;1.23;;;;;;;22.91;58.76;100009.69;5113923;28;20048;-66
2022/06/17 07:51:04;;;;;;;0.70;0.70;;;;;;;22.88;58.49;99999.41;5113867;28;20096;-64
2022/06/17 07:53:35;;;;;;;0.75;0.75;;;;;;;22.90;58.27;100002.78;5114097;28;20035;-66
2022/06/17 07:56:05;;;;;;;0.70;0.70;;;;;;;22.93;58.03;100002.66;5113948;28;20435;-68
2022/06/17 07:58:34;;;;;;;1.25;0.75;;;;;;;22.81;57.64;99983.22;5115321;28;20135;-67
2022/06/17 08:01:03;;;;;;;1.17;1.08;;;;;;;22.96;57.61;100003.34;5118498;28;20389;-65
2022/06/17 08:03:35;;;;;;;0.85;0.80;;;;;;;23.04;57.58;100006.44;5118230;28;20028;-67
2022/06/17 08:06:04;;;;;;;0.90;0.90;;;;;;;23.14;57.11;99999.03;5118078;28;20051;-67
2022/06/17 08:08:35;;;;;;;0.82;0.82;;;;;;;23.21;57.05;100016.06;5117835;28;20073;-65
2022/06/17 08:11:13;;;;;;;0.60;0.60;;;;;;;23.21;56.20;100003.91;5118054;28;20138;-67
2022/06/17 08:13:42;;;;;;;1.13;1.02;;;;;;;23.33;56.33;100002.47;5118051;28;20131;-67
2022/06/17 08:16:15;;;;;;;0.90;0.90;;;;;;;23.53;56.60;100015.44;5117765;28;20039;-68
2022/06/17 08:18:44;;;;;;;0.77;0.77;;;;;;;23.59;56.03;100015.13;5117647;28;20055;-65
2022/06/17 08:21:22;;;;;;;1.13;0.95;;;;;;;23.65;55.43;100025.25;5117591;28;20043;-65
2022/06/17 08:24:16;;;;;;;0.70;0.70;;;;;;;23.74;54.89;100030.03;5117941;28;20105;-68
2022/06/17 08:26:44;;;;;;;2.80;1.00;;;;;;;23.72;54.37;100025.81;5117156;28;20116;-67
2022/06/17 08:29:13;;;;;;;0.97;0.87;;;;;;;23.80;55.31;100029.72;5117748;28;20432;-67
2022/06/17 08:34:50;;;;;;;0.93;0.85;;;;;;;24.24;54.24;100029.28;5117587;28;20362;-66
2022/06/17 08:37:32;;;;;;;0.95;0.95;;;;;;;24.28;53.70;100036.06;5117510;28;20039;-66
2022/06/17 08:40:10;;;;;;;2.70;1.80;;;;;;;24.45;53.62;100028.19;5117163;28;20062;-67
2022/06/17 08:42:49;;;;;;;0.88;0.88;;;;;;;24.72;53.07;100034.56;5117540;28;20100;-66
2022/06/17 08:45:32;;;;;;;0.63;0.63;;;;;;;24.85;52.41;100038.25;5117480;28;20131;-65
2022/06/17 08:48:18;;;;;;;1.38;1.27;;;;;;;24.93;51.10;100040.47;5117127;28;20146;-66
2022/06/17 08:51:00;;;;;;;0.90;0.85;;;;;;;25.09;51.01;100036.94;5117086;28;20050;-67
2022/06/17 08:53:47;;;;;;;0.57;0.57;;;;;;;25.21;50.15;100046.72;5116941;28;20515;-66
2022/06/17 08:56:28;;;;;;;1.63;1.27;;;;;;;25.33;49.70;100044.34;5116897;28;20039;-64
2022/06/17 08:59:13;;;;;;;1.30;1.20;;;;;;;25.44;50.12;100047.19;5116794;28;20058;-67
2022/06/17 09:01:53;;;;;;;1.02;0.98;;;;;;;25.61;49.52;100052.38;5116870;28;20047;-68
2022/06/17 09:05:04;;;;;;;1.90;1.00;;;;;;;25.80;48.59;100060.84;5116811;28;20048;-66
2022/06/17 09:07:44;;;;;;;0.73;0.65;;;;;;;25.69;47.83;100071.09;5105641;28;20044;-67
2022/06/17 09:10:33;;;;;;;0.98;0.90;;;;;;;25.73;48.07;100076.06;5116112;28;20086;-67
2022/06/17 09:13:21;;;;;;;0.40;0.40;;;;;;;25.83;47.19;100081.59;5116752;28;20110;-65
2022/06/17 09:15:56;;;;;;;0.80;0.80;;;;;;;25.69;46.19;100078.94;5116496;28;20106;-67
2022/06/17 09:18:30;;;;;;;1.05;0.95;;;;;;;25.48;46.24;100074.91;5116588;28;20048;-65
2022/06/17 09:21:11;;;;;;;0.60;0.60;;;;;;;25.47;45.89;100094.97;5116461;28;20067;-64
2022/06/17 09:23:41;;;;;;;0.68;0.68;;;;;;;25.43;45.81;100092.59;5116247;28;20078;-67
2022/06/17 09:26:16;;;;;;;;;;;;;;;25.50;46.09;100093.97;5115206;28;20040;-67
2022/06/17 09:28:54;;;;;;;1.05;0.98;;;;;;;25.51;45.79;100079.94;5116165;28;19920;-67
2022/06/17 09:31:30;;;;;;;0.70;0.70;;;;;;;25.37;46.56;100093.75;5116244;28;20092;-66
2022/06/17 09:34:04;;;;;;;1.67;1.33;;;;;;;25.15;46.47;100081.00;5116548;28;20427;-66
2022/06/17 09:36:40;;;;;;;0.70;0.70;;;;;;;25.30;46.08;100103.72;5116133;28;20075;-67
2022/06/17 09:39:13;;;;;;;0.60;0.60;;;;;;;25.19;45.68;100100.81;5116206;28;20089;-66
2022/06/17 09:41:58;;;;;;;1.60;1.08;;;;;;;25.32;47.28;100101.00;5116309;28;20093;-66
2022/06/17 09:44:35;;;;;;;1.02;0.98;;;;;;;25.27;46.66;100106.47;5114803;28;20051;-66
2022/06/17 09:47:10;;;;;;;0.52;0.52;;;;;;;25.16;46.31;100105.38;5116253;28;20135;-67
2022/06/17 09:49:52;;;;;;;0.85;0.80;;;;;;;25.04;47.00;100109.50;5115738;27;20048;-67
2022/06/17 09:52:29;;;;;;;2.08;1.30;;;;;;;25.09;46.74;100114.47;5116172;28;20048;-67
2022/06/17 09:55:11;;;;;;;0.90;0.90;;;;;;;25.14;46.81;100117.69;5115989;28;20397;-68
2022/06/17 09:57:46;;;;;;;0.70;0.70;;;;;;;25.30;46.74;100114.16;5115701;28;20040;-67
2022/06/17 10:00:20;;;;;;;0.52;0.52;;;;;;;25.46;46.39;100113.38;5115827;28;20481;-67
2022/06/17 10:02:52;;;;;;;0.75;0.75;;;;;;;25.53;45.91;100114.72;5115615;27;20057;-66
2022/06/17 10:05:33;;;;;;;0.80;0.80;;;;;;;25.41;45.60;100110.13;5115863;28;20401;-65
2022/06/17 10:08:12;;;;;;;0.82;0.82;;;;;;;25.29;45.26;100104.63;5115698;28;20461;-68
2022/06/17 10:10:51;;;;;;;0.88;0.88;;;;;;;25.34;45.53;100103.56;5115740;28;20047;-65
2022/06/17 10:13:29;;;;;;;0.70;0.70;;;;;;;25.29;46.29;100112.47;5115723;28;20561;-65
2022/06/17 10:19:02;;;;;;;1.00;0.95;;;;;;;25.30;44.84;100114.16;5115190;28;20420;-68
2022/06/17 10:21:47;;;;;;;0.80;0.80;;;;;;;25.25;44.75;100116.19;5115173;28;20071;-68
2022/06/17 10:24:26;;;;;;;0.60;0.60;;;;;;;25.24;44.69;100114.47;5115443;28;20572;-68
2022/06/17 10:27:14;;;;;;;0.60;0.60;;;;;;;25.17;44.89;100113.13;5114108;28;20120;-63
2022/06/17 10:30:11;;;;;;;0.52;0.52;;;;;;;25.29;45.61;100096.78;5115305;28;20566;-68
2022/06/17 10:32:45;;;;;;;1.17;0.95;;;;;;;25.63;45.44;100121.09;5114668;28;20040;-67
2022/06/17 10:35:20;;;;;;;0.77;0.68;;;;;;;25.48;44.61;100111.50;5114966;28;20043;-66
2022/06/17 10:37:50;;;;;;;1.00;0.90;;;;;;;25.42;43.13;100132.72;5115120;28;20039;-67
2022/06/17 10:40:24;;;;;;;0.47;0.47;;;;;;;25.48;43.26;100128.03;5114768;28;20048;-67
2022/06/17 10:43:00;;;;;;;1.05;0.95;;;;;;;25.62;43.74;100104.59;5114765;28;20066;-66
2022/06/17 10:45:29;;;;;;;5.88;0.82;;;;;;;25.72;42.47;100121.44;5114780;28;20055;-66
2022/06/17 10:48:06;;;;;;;1.30;1.20;;;;;;;25.64;42.09;100133.25;5114268;28;20051;-66
2022/06/17 10:50:35;;;;;;;0.77;0.77;;;;;;;25.69;42.46;100126.00;5114727;28;20058;-67
2022/06/17 10:53:10;;;;;;;;;;;;;;;25.80;42.36;100129.72;5114625;28;20043;-67
2022/06/17 10:55:43;;;;;;;1.45;0.77;;;;;;;26.02;42.39;100129.34;5114560;28;19923;-67
2022/06/17 10:58:19;;;;;;;0.75;0.70;;;;;;;26.12;41.71;100138.41;5113357;28;20048;-67
2022/06/17 11:00:57;;;;;;;0.70;0.70;;;;;;;26.10;40.98;100126.28;5114610;28;20044;-67
2022/06/17 11:03:32;;;;;;;0.70;0.70;;;;;;;26.17;40.91;100133.75;5114504;28;20493;-67
2022/06/17 11:06:15;;;;;;;0.70;0.70;;;;;;;26.07;39.98;100124.69;5114200;28;20058;-63
2022/06/17 11:08:55;;;;;;;0.50;0.50;;;;;;;26.13;40.17;100134.81;5114548;28;20044;-68
2022/06/17 11:14:20;;;;;;;0.60;0.60;;;;;;;25.96;41.41;100145.41;5114872;28;20387;-67
2022/06/17 11:16:49;;;;;;;0.70;0.70;;;;;;;26.15;41.11;100134.75;5114203;28;20036;-66
2022/06/17 11:19:23;;;;;;;0.77;0.77;;;;;;;26.32;40.42;100132.84;5114756;28;20044;-66
2022/06/17 11:21:54;;;;;;;0.60;0.60;;;;;;;26.47;40.86;100137.19;5114263;28;20036;-68
2022/06/17 11:24:35;;;;;;;0.60;0.60;;;;;;;26.47;39.43;100137.19;5114389;28;20435;-64
2022/06/17 11:27:14;;;;;;;0.50;0.50;;;;;;;26.48;40.01;100131.03;5113921;28;20110;-68
2022/06/17 11:29:47;;;;;;;0.70;0.70;;;;;;;26.42;39.22;100136.59;5114396;28;20052;-67
2022/06/17 11:32:28;;;;;;;0.50;0.50;;;;;;;26.43;38.47;100135.69;5114031;28;20051;-66
2022/06/17 11:35:01;;;;;;;0.68;0.68;;;;;;;26.42;38.79;100130.53;5114256;28;20113;-65
2022/06/17 11:37:34;;;;;;;0.52;0.52;;;;;;;26.51;38.26;100122.97;5114007;28;20039;-65
2022/06/17 11:40:15;;;;;;;0.50;0.50;;;;;;;26.52;37.47;100124.66;5114061;28;20057;-69
2022/06/17 11:42:51;;;;;;;0.60;0.60;;;;;;;26.58;36.70;100119.09;5114182;28;20104;-66
2022/06/17 11:45:23;;;;;;;1.10;1.00;;;;;;;26.66;36.78;100130.88;5114381;28;20105;-68
2022/06/17 11:47:59;;;;;;;0.70;0.70;;;;;;;26.64;36.60;100130.94;5113761;28;20043;-66
2022/06/17 11:50:33;;;;;;;0.35;0.35;;;;;;;26.63;36.45;100132.72;5114171;28;20131;-66
2022/06/17 11:53:06;;;;;;;0.57;0.57;;;;;;;26.69;36.21;100125.44;5113891;28;20565;-69
2022/06/17 11:55:43;;;;;;;0.60;0.60;;;;;;;26.70;36.38;100133.22;5113872;28;20401;-67
2022/06/17 11:58:34;;;;;;;1.25;0.93;;;;;;;26.68;36.49;100129.00;5113856;28;20089;-66
2022/06/17 12:01:14;;;;;;;0.60;0.60;;;;;;;26.63;35.39;100117.00;5114125;28;20544;-67
2022/06/17 12:03:45;;;;;;;0.60;0.60;;;;;;;26.56;34.03;100115.69;5113722;28;20043;-69
2022/06/17 12:06:31;;;;;;;5.30;2.85;;;;;;;26.72;34.96;100115.63;5114094;28;20085;-68
2022/06/17 12:09:09;;;;;;;1.27;1.17;;;;;;;26.71;34.96;100128.78;5113633;28;20204;-65
2022/06/17 12:11:50;;;;;;;0.43;0.43;;;;;;;26.74;36.03;100118.16;5113520;28;20047;-67
2022/06/17 12:14:26;;;;;;;0.50;0.50;;;;;;;26.72;35.24;100125.25;5113655;28;20058;-67
2022/06/17 12:16:59;;;;;;;0.77;0.77;;;;;;;26.49;34.27;100114.38;5113555;28;20044;-67
2022/06/17 12:19:48;;;;;;;0.50;0.50;;;;;;;26.38;33.91;100106.31;5113572;28;20040;-67
2022/06/17 12:22:23;;;;;;;0.50;0.50;;;;;;;26.47;34.35;100105.75;5113808;28;20439;-67
2022/06/17 12:25:03;;;;;;;0.50;0.50;;;;;;;26.46;34.07;100113.72;5113876;28;20114;-65
2022/06/17 12:27:35;;;;;;;0.60;0.60;;;;;;;26.41;32.80;100106.13;5073295;28;20549;-68